sensor_id;sensor_type;location;lat;lon;timestamp;temperature;humidity
67186;HTU21D;54116;53.518;49.398;2023-01-23T00:00:39;-9.26;93.75
67186;HTU21D;54116;53.518;49.398;2023-01-23T00:03:06;-9.28;93.88
67186;HTU21D;54116;53.518;49.398;2023-01-23T00:05:32;-9.23;93.88
67186;HTU21D;54116;53.518;49.398;2023-01-23T00:07:59;-9.14;93.66
67186;HTU21D;54116;53.518;49.398;2023-01-23T00:10:25;-9.09;93.33
67186;HTU21D;54116;53.518;49.398;2023-01-23T00:12:51;-9.03;93.12
67186;HTU21D;54116;53.518;49.398;2023-01-23T00:15:19;-9.00;92.60
67186;HTU21D;54116;53.518;49.398;2023-01-23T00:17:45;-9.02;92.50
67186;HTU21D;54116;53.518;49.398;2023-01-23T00:20:13;-9.01;92.71
67186;HTU21D;54116;53.518;49.398;2023-01-23T00:22:39;-8.98;92.49
67186;HTU21D;54116;53.518;49.398;2023-01-23T00:25:06;-8.97;92.54
67186;HTU21D;54116;53.518;49.398;2023-01-23T00:27:33;-8.96;92.24
67186;HTU21D;54116;53.518;49.398;2023-01-23T00:29:59;-8.86;92.35
67186;HTU21D;54116;53.518;49.398;2023-01-23T00:32:26;-8.75;91.92
67186;HTU21D;54116;53.518;49.398;2023-01-23T00:34:53;-8.69;91.48
67186;HTU21D;54116;53.518;49.398;2023-01-23T00:37:19;-8.59;90.79
67186;HTU21D;54116;53.518;49.398;2023-01-23T00:39:45;-8.62;90.66
67186;HTU21D;54116;53.518;49.398;2023-01-23T00:42:12;-8.58;90.83
67186;HTU21D;54116;53.518;49.398;2023-01-23T00:44:38;-8.51;90.44
67186;HTU21D;54116;53.518;49.398;2023-01-23T00:47:04;-8.50;90.13
67186;HTU21D;54116;53.518;49.398;2023-01-23T00:49:31;-8.50;89.78
67186;HTU21D;54116;53.518;49.398;2023-01-23T00:51:57;-8.49;89.85
67186;HTU21D;54116;53.518;49.398;2023-01-23T00:54:24;-8.50;89.83
67186;HTU21D;54116;53.518;49.398;2023-01-23T00:56:50;-8.51;89.79
67186;HTU21D;54116;53.518;49.398;2023-01-23T00:59:17;-8.51;89.53
67186;HTU21D;54116;53.518;49.398;2023-01-23T01:01:44;-8.56;89.69
67186;HTU21D;54116;53.518;49.398;2023-01-23T01:04:10;-8.59;89.49
67186;HTU21D;54116;53.518;49.398;2023-01-23T01:06:37;-8.66;89.61
67186;HTU21D;54116;53.518;49.398;2023-01-23T01:09:03;-8.73;89.71
67186;HTU21D;54116;53.518;49.398;2023-01-23T01:11:30;-8.79;89.99
67186;HTU21D;54116;53.518;49.398;2023-01-23T01:13:56;-8.86;90.26
67186;HTU21D;54116;53.518;49.398;2023-01-23T01:16:23;-8.93;90.27
67186;HTU21D;54116;53.518;49.398;2023-01-23T01:18:50;-9.00;90.53
67186;HTU21D;54116;53.518;49.398;2023-01-23T01:21:17;-9.07;90.73
67186;HTU21D;54116;53.518;49.398;2023-01-23T01:23:44;-9.11;91.02
67186;HTU21D;54116;53.518;49.398;2023-01-23T01:26:12;-9.22;91.05
67186;HTU21D;54116;53.518;49.398;2023-01-23T01:28:39;-9.32;91.54
67186;HTU21D;54116;53.518;49.398;2023-01-23T01:31:11;-9.43;91.60
67186;HTU21D;54116;53.518;49.398;2023-01-23T01:33:38;-9.49;92.18
67186;HTU21D;54116;53.518;49.398;2023-01-23T01:36:09;-9.59;92.08
67186;HTU21D;54116;53.518;49.398;2023-01-23T01:38:36;-9.71;92.35
67186;HTU21D;54116;53.518;49.398;2023-01-23T01:41:03;-9.76;92.92
67186;HTU21D;54116;53.518;49.398;2023-01-23T01:43:30;-9.76;93.28
67186;HTU21D;54116;53.518;49.398;2023-01-23T01:46:18;-9.66;93.37
67186;HTU21D;54116;53.518;49.398;2023-01-23T01:54:41;-9.70;93.03
67186;HTU21D;54116;53.518;49.398;2023-01-23T01:57:15;-9.74;92.92
67186;HTU21D;54116;53.518;49.398;2023-01-23T01:59:57;-9.71;93.11
67186;HTU21D;54116;53.518;49.398;2023-01-23T02:05:31;-9.71;92.86
67186;HTU21D;54116;53.518;49.398;2023-01-23T02:10:53;-9.84;93.04
67186;HTU21D;54116;53.518;49.398;2023-01-23T02:13:27;-9.86;92.95
67186;HTU21D;54116;53.518;49.398;2023-01-23T02:15:58;-9.89;92.95
67186;HTU21D;54116;53.518;49.398;2023-01-23T02:18:27;-9.86;93.53
67186;HTU21D;54116;53.518;49.398;2023-01-23T02:20:55;-9.87;93.11
67186;HTU21D;54116;53.518;49.398;2023-01-23T02:26:33;-10.03;93.04
67186;HTU21D;54116;53.518;49.398;2023-01-23T02:29:02;-10.06;93.67
67186;HTU21D;54116;53.518;49.398;2023-01-23T02:31:29;-10.07;93.97
67186;HTU21D;54116;53.518;49.398;2023-01-23T02:33:58;-10.08;93.78
67186;HTU21D;54116;53.518;49.398;2023-01-23T02:36:28;-10.18;93.31
67186;HTU21D;54116;53.518;49.398;2023-01-23T02:41:41;-10.33;93.95
67186;HTU21D;54116;53.518;49.398;2023-01-23T02:46:39;-10.68;94.23
67186;HTU21D;54116;53.518;49.398;2023-01-23T02:49:06;-10.82;94.39
67186;HTU21D;54116;53.518;49.398;2023-01-23T02:51:33;-10.91;95.62
67186;HTU21D;54116;53.518;49.398;2023-01-23T02:54:00;-10.94;95.77
67186;HTU21D;54116;53.518;49.398;2023-01-23T02:56:27;-11.03;95.27
67186;HTU21D;54116;53.518;49.398;2023-01-23T02:58:53;-11.07;96.36
67186;HTU21D;54116;53.518;49.398;2023-01-23T03:01:38;-11.12;95.95
67186;HTU21D;54116;53.518;49.398;2023-01-23T03:04:05;-11.11;97.16
67186;HTU21D;54116;53.518;49.398;2023-01-23T03:06:34;-11.08;96.92
67186;HTU21D;54116;53.518;49.398;2023-01-23T03:09:06;-11.08;96.18
67186;HTU21D;54116;53.518;49.398;2023-01-23T03:11:33;-11.17;95.54
67186;HTU21D;54116;53.518;49.398;2023-01-23T03:14:00;-11.26;95.48
67186;HTU21D;54116;53.518;49.398;2023-01-23T03:16:27;-11.36;95.61
67186;HTU21D;54116;53.518;49.398;2023-01-23T03:18:53;-11.44;96.01
67186;HTU21D;54116;53.518;49.398;2023-01-23T03:21:20;-11.50;96.65
67186;HTU21D;54116;53.518;49.398;2023-01-23T03:23:46;-11.54;96.86
67186;HTU21D;54116;53.518;49.398;2023-01-23T03:26:14;-11.59;96.70
67186;HTU21D;54116;53.518;49.398;2023-01-23T03:28:40;-11.63;97.38
67186;HTU21D;54116;53.518;49.398;2023-01-23T03:31:25;-11.70;97.26
67186;HTU21D;54116;53.518;49.398;2023-01-23T03:33:51;-11.74;98.00
67186;HTU21D;54116;53.518;49.398;2023-01-23T03:36:18;-11.79;97.52
67186;HTU21D;54116;53.518;49.398;2023-01-23T03:38:44;-11.88;97.14
67186;HTU21D;54116;53.518;49.398;2023-01-23T03:41:31;-11.95;97.26
67186;HTU21D;54116;53.518;49.398;2023-01-23T03:43:57;-11.99;97.56
67186;HTU21D;54116;53.518;49.398;2023-01-23T03:46:23;-12.05;97.84
67186;HTU21D;54116;53.518;49.398;2023-01-23T03:48:50;-12.01;98.86
67186;HTU21D;54116;53.518;49.398;2023-01-23T03:51:17;-11.94;99.42
67186;HTU21D;54116;53.518;49.398;2023-01-23T03:53:43;-11.88;99.57
67186;HTU21D;54116;53.518;49.398;2023-01-23T03:56:10;-11.89;98.98
67186;HTU21D;54116;53.518;49.398;2023-01-23T03:58:36;-11.89;99.71
67186;HTU21D;54116;53.518;49.398;2023-01-23T04:01:07;-11.94;99.38
67186;HTU21D;54116;53.518;49.398;2023-01-23T04:03:34;-11.98;99.05
67186;HTU21D;54116;53.518;49.398;2023-01-23T04:06:01;-12.01;99.01
67186;HTU21D;54116;53.518;49.398;2023-01-23T04:08:27;-12.05;98.96
67186;HTU21D;54116;53.518;49.398;2023-01-23T04:11:05;-12.08;99.00
67186;HTU21D;54116;53.518;49.398;2023-01-23T04:13:32;-12.12;98.93
67186;HTU21D;54116;53.518;49.398;2023-01-23T04:15:59;-12.18;98.86
67186;HTU21D;54116;53.518;49.398;2023-01-23T04:20:37;-12.25;99.17
67186;HTU21D;54116;53.518;49.398;2023-01-23T04:23:03;-12.32;98.84
67186;HTU21D;54116;53.518;49.398;2023-01-23T04:25:30;-12.37;98.85
67186;HTU21D;54116;53.518;49.398;2023-01-23T04:27:56;-12.43;99.06
67186;HTU21D;54116;53.518;49.398;2023-01-23T04:30:22;-12.53;98.89
67186;HTU21D;54116;53.518;49.398;2023-01-23T04:32:49;-12.63;98.76
67186;HTU21D;54116;53.518;49.398;2023-01-23T04:35:16;-12.66;99.02
67186;HTU21D;54116;53.518;49.398;2023-01-23T04:37:42;-12.72;99.06
67186;HTU21D;54116;53.518;49.398;2023-01-23T04:40:09;-12.74;99.15
67186;HTU21D;54116;53.518;49.398;2023-01-23T04:42:36;-12.83;98.77
67186;HTU21D;54116;53.518;49.398;2023-01-23T04:45:02;-12.93;98.56
67186;HTU21D;54116;53.518;49.398;2023-01-23T04:47:29;-13.00;98.72
67186;HTU21D;54116;53.518;49.398;2023-01-23T04:49:55;-13.06;98.64
67186;HTU21D;54116;53.518;49.398;2023-01-23T04:52:21;-13.08;98.83
67186;HTU21D;54116;53.518;49.398;2023-01-23T04:54:48;-13.08;98.72
67186;HTU21D;54116;53.518;49.398;2023-01-23T04:57:14;-13.03;99.02
67186;HTU21D;54116;53.518;49.398;2023-01-23T04:59:41;-12.98;99.21
67186;HTU21D;54116;53.518;49.398;2023-01-23T05:02:07;-12.92;99.35
67186;HTU21D;54116;53.518;49.398;2023-01-23T05:06:46;-12.85;99.00
67186;HTU21D;54116;53.518;49.398;2023-01-23T05:11:25;-12.68;99.03
67186;HTU21D;54116;53.518;49.398;2023-01-23T05:16:06;-12.48;98.77
67186;HTU21D;54116;53.518;49.398;2023-01-23T05:18:32;-12.39;98.30
67186;HTU21D;54116;53.518;49.398;2023-01-23T05:20:59;-12.37;97.20
67186;HTU21D;54116;53.518;49.398;2023-01-23T05:23:25;-12.47;96.19
67186;HTU21D;54116;53.518;49.398;2023-01-23T05:25:51;-12.48;96.20
67186;HTU21D;54116;53.518;49.398;2023-01-23T05:28:18;-12.36;96.58
67186;HTU21D;54116;53.518;49.398;2023-01-23T05:30:45;-12.24;96.29
67186;HTU21D;54116;53.518;49.398;2023-01-23T05:50:48;-11.34;92.47
67186;HTU21D;54116;53.518;49.398;2023-01-23T05:53:14;-11.30;92.40
67186;HTU21D;54116;53.518;49.398;2023-01-23T05:55:41;-11.23;92.60
67186;HTU21D;54116;53.518;49.398;2023-01-23T05:58:07;-11.15;92.50
67186;HTU21D;54116;53.518;49.398;2023-01-23T06:00:33;-11.01;92.68
67186;HTU21D;54116;53.518;49.398;2023-01-23T06:03:00;-10.77;92.70
67186;HTU21D;54116;53.518;49.398;2023-01-23T06:05:26;-10.52;92.04
67186;HTU21D;54116;53.518;49.398;2023-01-23T06:07:52;-10.33;91.27
67186;HTU21D;54116;53.518;49.398;2023-01-23T06:10:19;-10.14;90.64
67186;HTU21D;54116;53.518;49.398;2023-01-23T06:14:56;-9.71;89.89
67186;HTU21D;54116;53.518;49.398;2023-01-23T06:17:23;-9.48;88.73
67186;HTU21D;54116;53.518;49.398;2023-01-23T06:19:49;-9.27;87.94
67186;HTU21D;54116;53.518;49.398;2023-01-23T06:24:27;-8.94;86.92
67186;HTU21D;54116;53.518;49.398;2023-01-23T06:26:54;-8.74;87.17
67186;HTU21D;54116;53.518;49.398;2023-01-23T06:29:20;-8.66;85.50
67186;HTU21D;54116;53.518;49.398;2023-01-23T06:31:46;-8.45;85.14
67186;HTU21D;54116;53.518;49.398;2023-01-23T06:34:13;-8.26;84.42
67186;HTU21D;54116;53.518;49.398;2023-01-23T06:36:40;-8.09;83.63
67186;HTU21D;54116;53.518;49.398;2023-01-23T06:39:07;-7.93;83.71
67186;HTU21D;54116;53.518;49.398;2023-01-23T06:41:33;-7.77;84.22
67186;HTU21D;54116;53.518;49.398;2023-01-23T06:44:00;-7.63;83.26
67186;HTU21D;54116;53.518;49.398;2023-01-23T06:46:26;-7.54;81.72
67186;HTU21D;54116;53.518;49.398;2023-01-23T06:48:52;-7.38;81.59
67186;HTU21D;54116;53.518;49.398;2023-01-23T06:51:19;-7.24;80.64
67186;HTU21D;54116;53.518;49.398;2023-01-23T06:53:45;-7.10;80.09
67186;HTU21D;54116;53.518;49.398;2023-01-23T06:56:11;-7.00;79.96
67186;HTU21D;54116;53.518;49.398;2023-01-23T06:58:38;-6.90;80.55
67186;HTU21D;54116;53.518;49.398;2023-01-23T07:01:12;-6.88;78.86
67186;HTU21D;54116;53.518;49.398;2023-01-23T07:03:41;-6.72;79.23
67186;HTU21D;54116;53.518;49.398;2023-01-23T07:06:11;-6.63;80.17
67186;HTU21D;54116;53.518;49.398;2023-01-23T07:08:38;-6.43;78.60
67186;HTU21D;54116;53.518;49.398;2023-01-23T07:11:04;-6.34;77.88
67186;HTU21D;54116;53.518;49.398;2023-01-23T07:13:31;-6.27;78.16
67186;HTU21D;54116;53.518;49.398;2023-01-23T07:15:58;-6.26;76.87
67186;HTU21D;54116;53.518;49.398;2023-01-23T07:18:25;-6.22;76.88
67186;HTU21D;54116;53.518;49.398;2023-01-23T07:20:53;-6.24;77.94
67186;HTU21D;54116;53.518;49.398;2023-01-23T07:23:20;-6.23;76.15
67186;HTU21D;54116;53.518;49.398;2023-01-23T07:25:46;-6.21;76.21
67186;HTU21D;54116;53.518;49.398;2023-01-23T07:28:13;-6.16;76.25
67186;HTU21D;54116;53.518;49.398;2023-01-23T07:30:39;-6.02;75.64
67186;HTU21D;54116;53.518;49.398;2023-01-23T07:33:06;-6.01;75.95
67186;HTU21D;54116;53.518;49.398;2023-01-23T07:35:32;-5.98;75.81
67186;HTU21D;54116;53.518;49.398;2023-01-23T07:37:58;-5.99;75.21
67186;HTU21D;54116;53.518;49.398;2023-01-23T07:40:25;-5.97;74.51
67186;HTU21D;54116;53.518;49.398;2023-01-23T07:42:51;-5.97;74.64
67186;HTU21D;54116;53.518;49.398;2023-01-23T07:45:17;-6.03;74.61
67186;HTU21D;54116;53.518;49.398;2023-01-23T07:47:44;-5.92;75.24
67186;HTU21D;54116;53.518;49.398;2023-01-23T07:50:11;-5.79;75.41
67186;HTU21D;54116;53.518;49.398;2023-01-23T07:52:38;-5.67;74.60
67186;HTU21D;54116;53.518;49.398;2023-01-23T07:55:05;-5.63;73.83
67186;HTU21D;54116;53.518;49.398;2023-01-23T07:57:31;-5.60;74.17
67186;HTU21D;54116;53.518;49.398;2023-01-23T07:59:59;-5.64;73.69
67186;HTU21D;54116;53.518;49.398;2023-01-23T08:02:25;-5.70;74.25
67186;HTU21D;54116;53.518;49.398;2023-01-23T08:04:51;-5.70;74.12
67186;HTU21D;54116;53.518;49.398;2023-01-23T08:07:17;-5.53;73.97
67186;HTU21D;54116;53.518;49.398;2023-01-23T08:09:44;-5.41;73.32
67186;HTU21D;54116;53.518;49.398;2023-01-23T08:12:11;-5.30;73.06
67186;HTU21D;54116;53.518;49.398;2023-01-23T08:14:38;-5.20;72.87
67186;HTU21D;54116;53.518;49.398;2023-01-23T08:17:06;-5.12;72.99
67186;HTU21D;54116;53.518;49.398;2023-01-23T08:19:32;-5.15;72.82
67186;HTU21D;54116;53.518;49.398;2023-01-23T08:21:58;-5.11;73.43
67186;HTU21D;54116;53.518;49.398;2023-01-23T08:24:25;-5.17;72.25
67186;HTU21D;54116;53.518;49.398;2023-01-23T08:26:51;-5.22;73.06
67186;HTU21D;54116;53.518;49.398;2023-01-23T08:29:18;-5.16;72.74
67186;HTU21D;54116;53.518;49.398;2023-01-23T08:31:46;-5.07;73.38
67186;HTU21D;54116;53.518;49.398;2023-01-23T08:34:12;-5.04;72.16
67186;HTU21D;54116;53.518;49.398;2023-01-23T08:36:39;-5.14;71.88
67186;HTU21D;54116;53.518;49.398;2023-01-23T08:39:06;-5.11;72.51
67186;HTU21D;54116;53.518;49.398;2023-01-23T08:41:32;-5.00;72.14
67186;HTU21D;54116;53.518;49.398;2023-01-23T08:43:59;-5.02;71.50
67186;HTU21D;54116;53.518;49.398;2023-01-23T08:46:29;-5.00;72.06
67186;HTU21D;54116;53.518;49.398;2023-01-23T08:48:56;-4.96;72.14
67186;HTU21D;54116;53.518;49.398;2023-01-23T08:51:22;-4.87;72.46
67186;HTU21D;54116;53.518;49.398;2023-01-23T08:53:51;-4.78;71.00
67186;HTU21D;54116;53.518;49.398;2023-01-23T08:56:20;-4.76;71.26
67186;HTU21D;54116;53.518;49.398;2023-01-23T08:58:48;-4.66;71.34
67186;HTU21D;54116;53.518;49.398;2023-01-23T09:01:17;-4.58;71.25
67186;HTU21D;54116;53.518;49.398;2023-01-23T09:03:44;-4.49;69.99
67186;HTU21D;54116;53.518;49.398;2023-01-23T09:06:11;-4.53;69.94
67186;HTU21D;54116;53.518;49.398;2023-01-23T09:08:39;-4.53;70.66
67186;HTU21D;54116;53.518;49.398;2023-01-23T09:11:07;-4.51;70.88
67186;HTU21D;54116;53.518;49.398;2023-01-23T09:13:34;-4.49;70.19
67186;HTU21D;54116;53.518;49.398;2023-01-23T09:16:03;-4.48;70.28
67186;HTU21D;54116;53.518;49.398;2023-01-23T09:18:30;-4.39;69.97
67186;HTU21D;54116;53.518;49.398;2023-01-23T09:20:56;-4.46;69.54
67186;HTU21D;54116;53.518;49.398;2023-01-23T09:23:24;-4.48;70.23
67186;HTU21D;54116;53.518;49.398;2023-01-23T09:25:51;-4.45;69.74
67186;HTU21D;54116;53.518;49.398;2023-01-23T09:28:17;-4.50;71.00
67186;HTU21D;54116;53.518;49.398;2023-01-23T09:30:43;-4.55;69.53
67186;HTU21D;54116;53.518;49.398;2023-01-23T09:33:10;-4.72;70.05
67186;HTU21D;54116;53.518;49.398;2023-01-23T09:35:37;-4.81;69.82
67186;HTU21D;54116;53.518;49.398;2023-01-23T09:38:03;-4.94;70.16
67186;HTU21D;54116;53.518;49.398;2023-01-23T09:40:36;-4.96;70.92
67186;HTU21D;54116;53.518;49.398;2023-01-23T09:46:06;-4.91;70.74
67186;HTU21D;54116;53.518;49.398;2023-01-23T09:48:43;-4.88;71.53
67186;HTU21D;54116;53.518;49.398;2023-01-23T09:53:44;-4.75;71.45
67186;HTU21D;54116;53.518;49.398;2023-01-23T09:56:20;-4.73;70.55
67186;HTU21D;54116;53.518;49.398;2023-01-23T10:01:17;-4.75;71.78
67186;HTU21D;54116;53.518;49.398;2023-01-23T10:03:43;-4.66;71.87
67186;HTU21D;54116;53.518;49.398;2023-01-23T10:06:22;-4.70;70.82
67186;HTU21D;54116;53.518;49.398;2023-01-23T10:09:19;-4.70;71.63
67186;HTU21D;54116;53.518;49.398;2023-01-23T10:20:25;-4.66;71.96
67186;HTU21D;54116;53.518;49.398;2023-01-23T10:23:24;-4.79;70.81
67186;HTU21D;54116;53.518;49.398;2023-01-23T10:25:55;-4.70;70.33
67186;HTU21D;54116;53.518;49.398;2023-01-23T10:28:33;-4.72;70.83
67186;HTU21D;54116;53.518;49.398;2023-01-23T10:31:08;-4.75;70.58
67186;HTU21D;54116;53.518;49.398;2023-01-23T10:33:46;-4.69;71.10
67186;HTU21D;54116;53.518;49.398;2023-01-23T10:36:21;-4.66;70.84
67186;HTU21D;54116;53.518;49.398;2023-01-23T10:38:56;-4.69;70.53
67186;HTU21D;54116;53.518;49.398;2023-01-23T10:41:24;-4.71;70.20
67186;HTU21D;54116;53.518;49.398;2023-01-23T10:43:51;-4.78;70.29
67186;HTU21D;54116;53.518;49.398;2023-01-23T10:46:30;-4.88;70.00
67186;HTU21D;54116;53.518;49.398;2023-01-23T10:49:01;-5.01;70.51
67186;HTU21D;54116;53.518;49.398;2023-01-23T10:56:33;-4.91;71.05
67186;HTU21D;54116;53.518;49.398;2023-01-23T10:59:01;-5.02;70.44
67186;HTU21D;54116;53.518;49.398;2023-01-23T11:01:31;-5.02;70.78
67186;HTU21D;54116;53.518;49.398;2023-01-23T11:04:18;-5.00;70.45
67186;HTU21D;54116;53.518;49.398;2023-01-23T11:06:59;-4.99;70.42
67186;HTU21D;54116;53.518;49.398;2023-01-23T11:09:26;-4.97;69.75
67186;HTU21D;54116;53.518;49.398;2023-01-23T11:12:03;-4.98;70.21
67186;HTU21D;54116;53.518;49.398;2023-01-23T11:14:30;-4.97;69.91
67186;HTU21D;54116;53.518;49.398;2023-01-23T11:17:01;-5.00;69.90
67186;HTU21D;54116;53.518;49.398;2023-01-23T11:19:30;-5.10;68.91
67186;HTU21D;54116;53.518;49.398;2023-01-23T11:22:02;-5.17;69.81
67186;HTU21D;54116;53.518;49.398;2023-01-23T11:24:36;-5.19;70.72
67186;HTU21D;54116;53.518;49.398;2023-01-23T11:29:51;-5.20;70.60
67186;HTU21D;54116;53.518;49.398;2023-01-23T11:32:19;-5.23;70.26
67186;HTU21D;54116;53.518;49.398;2023-01-23T11:34:50;-5.31;69.56
67186;HTU21D;54116;53.518;49.398;2023-01-23T11:37:24;-5.34;69.47
67186;HTU21D;54116;53.518;49.398;2023-01-23T11:42:27;-5.46;70.07
67186;HTU21D;54116;53.518;49.398;2023-01-23T11:44:56;-5.48;69.73
67186;HTU21D;54116;53.518;49.398;2023-01-23T11:50:43;-5.53;69.88
67186;HTU21D;54116;53.518;49.398;2023-01-23T11:53:36;-5.60;69.80
67186;HTU21D;54116;53.518;49.398;2023-01-23T12:04:15;-5.88;71.54
67186;HTU21D;54116;53.518;49.398;2023-01-23T12:07:02;-5.99;71.27
67186;HTU21D;54116;53.518;49.398;2023-01-23T12:12:39;-6.26;71.87
67186;HTU21D;54116;53.518;49.398;2023-01-23T12:15:26;-6.37;71.82
67186;HTU21D;54116;53.518;49.398;2023-01-23T12:26:01;-6.73;72.19
67186;HTU21D;54116;53.518;49.398;2023-01-23T12:31:13;-6.94;72.52
67186;HTU21D;54116;53.518;49.398;2023-01-23T12:36:52;-7.22;73.45
67186;HTU21D;54116;53.518;49.398;2023-01-23T12:39:38;-7.38;74.14
67186;HTU21D;54116;53.518;49.398;2023-01-23T12:42:18;-7.53;74.76
67186;HTU21D;54116;53.518;49.398;2023-01-23T12:47:29;-7.72;75.10
67186;HTU21D;54116;53.518;49.398;2023-01-23T12:50:03;-7.83;75.36
67186;HTU21D;54116;53.518;49.398;2023-01-23T12:52:42;-7.94;75.84
67186;HTU21D;54116;53.518;49.398;2023-01-23T12:55:16;-8.01;75.85
67186;HTU21D;54116;53.518;49.398;2023-01-23T12:57:45;-8.13;76.58
67186;HTU21D;54116;53.518;49.398;2023-01-23T13:06:20;-8.48;77.74
67186;HTU21D;54116;53.518;49.398;2023-01-23T13:09:01;-8.53;78.21
67186;HTU21D;54116;53.518;49.398;2023-01-23T13:11:49;-8.62;78.46
67186;HTU21D;54116;53.518;49.398;2023-01-23T13:14:36;-8.71;78.72
67186;HTU21D;54116;53.518;49.398;2023-01-23T13:23:27;-8.97;80.63
67186;HTU21D;54116;53.518;49.398;2023-01-23T13:28:44;-9.09;80.07
67186;HTU21D;54116;53.518;49.398;2023-01-23T13:31:32;-9.11;80.81
67186;HTU21D;54116;53.518;49.398;2023-01-23T13:34:02;-9.15;81.01
67186;HTU21D;54116;53.518;49.398;2023-01-23T13:36:44;-9.16;81.36
67186;HTU21D;54116;53.518;49.398;2023-01-23T13:39:19;-9.15;81.41
67186;HTU21D;54116;53.518;49.398;2023-01-23T13:41:50;-9.22;81.33
67186;HTU21D;54116;53.518;49.398;2023-01-23T13:44:26;-9.29;81.58
67186;HTU21D;54116;53.518;49.398;2023-01-23T13:47:23;-9.39;82.13
67186;HTU21D;54116;53.518;49.398;2023-01-23T13:50:28;-9.46;82.29
67186;HTU21D;54116;53.518;49.398;2023-01-23T13:52:58;-9.48;82.09
67186;HTU21D;54116;53.518;49.398;2023-01-23T13:55:45;-9.51;82.65
67186;HTU21D;54116;53.518;49.398;2023-01-23T13:58:32;-9.54;82.65
67186;HTU21D;54116;53.518;49.398;2023-01-23T14:01:12;-9.54;82.81
67186;HTU21D;54116;53.518;49.398;2023-01-23T14:04:04;-9.56;83.02
67186;HTU21D;54116;53.518;49.398;2023-01-23T14:06:49;-9.59;82.97
67186;HTU21D;54116;53.518;49.398;2023-01-23T14:09:27;-9.68;83.53
67186;HTU21D;54116;53.518;49.398;2023-01-23T14:11:59;-9.81;83.60
67186;HTU21D;54116;53.518;49.398;2023-01-23T14:14:35;-9.89;83.91
67186;HTU21D;54116;53.518;49.398;2023-01-23T14:17:21;-10.01;83.81
67186;HTU21D;54116;53.518;49.398;2023-01-23T14:20:12;-10.17;85.85
67186;HTU21D;54116;53.518;49.398;2023-01-23T14:22:42;-10.29;85.61
67186;HTU21D;54116;53.518;49.398;2023-01-23T14:25:15;-10.43;86.09
67186;HTU21D;54116;53.518;49.398;2023-01-23T14:27:42;-10.46;87.35
67186;HTU21D;54116;53.518;49.398;2023-01-23T14:30:23;-10.55;87.06
67186;HTU21D;54116;53.518;49.398;2023-01-23T14:32:51;-10.59;86.51
67186;HTU21D;54116;53.518;49.398;2023-01-23T14:35:23;-10.65;87.41
67186;HTU21D;54116;53.518;49.398;2023-01-23T14:37:51;-10.59;88.79
67186;HTU21D;54116;53.518;49.398;2023-01-23T14:40:20;-10.55;88.22
67186;HTU21D;54116;53.518;49.398;2023-01-23T14:42:58;-10.57;87.41
67186;HTU21D;54116;53.518;49.398;2023-01-23T14:45:28;-10.64;87.00
67186;HTU21D;54116;53.518;49.398;2023-01-23T14:47:55;-10.74;89.31
67186;HTU21D;54116;53.518;49.398;2023-01-23T14:50:24;-10.76;88.73
67186;HTU21D;54116;53.518;49.398;2023-01-23T14:52:58;-10.81;89.07
67186;HTU21D;54116;53.518;49.398;2023-01-23T14:55:27;-10.85;90.53
67186;HTU21D;54116;53.518;49.398;2023-01-23T14:57:57;-10.86;89.75
67186;HTU21D;54116;53.518;49.398;2023-01-23T15:00:24;-10.84;89.02
67186;HTU21D;54116;53.518;49.398;2023-01-23T15:02:51;-10.75;88.95
67186;HTU21D;54116;53.518;49.398;2023-01-23T15:05:24;-10.71;90.36
67186;HTU21D;54116;53.518;49.398;2023-01-23T15:08:03;-10.72;88.61
67186;HTU21D;54116;53.518;49.398;2023-01-23T15:13:24;-10.88;87.78
67186;HTU21D;54116;53.518;49.398;2023-01-23T15:16:00;-10.95;88.90
67186;HTU21D;54116;53.518;49.398;2023-01-23T15:18:29;-11.02;89.60
67186;HTU21D;54116;53.518;49.398;2023-01-23T15:21:03;-11.02;89.36
67186;HTU21D;54116;53.518;49.398;2023-01-23T15:23:35;-11.01;89.33
67186;HTU21D;54116;53.518;49.398;2023-01-23T15:26:32;-11.07;88.91
67186;HTU21D;54116;53.518;49.398;2023-01-23T15:34:19;-11.23;90.03
67186;HTU21D;54116;53.518;49.398;2023-01-23T15:41:59;-11.27;91.98
67186;HTU21D;54116;53.518;49.398;2023-01-23T15:44:29;-11.33;90.63
67186;HTU21D;54116;53.518;49.398;2023-01-23T15:46:58;-11.31;91.08
67186;HTU21D;54116;53.518;49.398;2023-01-23T15:49:30;-11.32;91.43
67186;HTU21D;54116;53.518;49.398;2023-01-23T15:51:59;-11.27;91.60
67186;HTU21D;54116;53.518;49.398;2023-01-23T15:54:32;-11.27;91.37
67186;HTU21D;54116;53.518;49.398;2023-01-23T15:56:59;-11.27;91.58
67186;HTU21D;54116;53.518;49.398;2023-01-23T15:59:25;-11.20;91.23
67186;HTU21D;54116;53.518;49.398;2023-01-23T16:01:52;-11.07;90.96
67186;HTU21D;54116;53.518;49.398;2023-01-23T16:04:18;-11.00;90.50
67186;HTU21D;54116;53.518;49.398;2023-01-23T16:06:46;-10.91;90.05
67186;HTU21D;54116;53.518;49.398;2023-01-23T16:09:21;-10.80;89.36
67186;HTU21D;54116;53.518;49.398;2023-01-23T16:11:50;-10.78;89.61
67186;HTU21D;54116;53.518;49.398;2023-01-23T16:14:18;-10.79;88.73
67186;HTU21D;54116;53.518;49.398;2023-01-23T16:16:44;-10.80;88.26
67186;HTU21D;54116;53.518;49.398;2023-01-23T16:19:11;-10.90;88.44
67186;HTU21D;54116;53.518;49.398;2023-01-23T16:21:37;-10.99;89.97
67186;HTU21D;54116;53.518;49.398;2023-01-23T16:24:05;-11.04;89.71
67186;HTU21D;54116;53.518;49.398;2023-01-23T16:26:32;-11.10;89.50
67186;HTU21D;54116;53.518;49.398;2023-01-23T16:28:59;-11.14;90.34
67186;HTU21D;54116;53.518;49.398;2023-01-23T16:31:26;-11.11;91.51
67186;HTU21D;54116;53.518;49.398;2023-01-23T16:33:52;-11.08;90.31
67186;HTU21D;54116;53.518;49.398;2023-01-23T16:36:19;-10.89;90.31
67186;HTU21D;54116;53.518;49.398;2023-01-23T16:38:51;-10.77;89.54
67186;HTU21D;54116;53.518;49.398;2023-01-23T16:41:18;-10.65;89.95
67186;HTU21D;54116;53.518;49.398;2023-01-23T16:43:44;-10.67;88.29
67186;HTU21D;54116;53.518;49.398;2023-01-23T16:46:11;-10.62;88.86
67186;HTU21D;54116;53.518;49.398;2023-01-23T16:48:38;-10.64;88.06
67186;HTU21D;54116;53.518;49.398;2023-01-23T16:51:18;-10.72;88.81
67186;HTU21D;54116;53.518;49.398;2023-01-23T16:53:53;-10.82;88.97
67186;HTU21D;54116;53.518;49.398;2023-01-23T16:56:33;-10.82;89.46
67186;HTU21D;54116;53.518;49.398;2023-01-23T16:59:05;-10.91;89.96
67186;HTU21D;54116;53.518;49.398;2023-01-23T17:01:35;-10.93;90.37
67186;HTU21D;54116;53.518;49.398;2023-01-23T17:04:03;-10.79;89.27
67186;HTU21D;54116;53.518;49.398;2023-01-23T17:06:30;-10.67;89.27
67186;HTU21D;54116;53.518;49.398;2023-01-23T17:08:58;-10.65;88.76
67186;HTU21D;54116;53.518;49.398;2023-01-23T17:11:45;-10.80;88.60
67186;HTU21D;54116;53.518;49.398;2023-01-23T17:14:25;-10.95;88.75
67186;HTU21D;54116;53.518;49.398;2023-01-23T17:17:02;-11.05;89.57
67186;HTU21D;54116;53.518;49.398;2023-01-23T17:19:36;-11.21;89.68
67186;HTU21D;54116;53.518;49.398;2023-01-23T17:22:07;-11.26;91.27
67186;HTU21D;54116;53.518;49.398;2023-01-23T17:24:40;-11.31;92.22
67186;HTU21D;54116;53.518;49.398;2023-01-23T17:27:06;-11.30;91.73
67186;HTU21D;54116;53.518;49.398;2023-01-23T17:29:33;-11.29;91.58